sensor_id;sensor_type;location;lat;lon;timestamp;pressure;altitude;pressure_sealevel;temperature;humidity
46223;BME280;31943;51.410;7.564;2023-04-24T00:01:07;98786.56;;;12.62;56.95
46223;BME280;31943;51.410;7.564;2023-04-24T00:03:35;98778.69;;;12.63;57.04
46223;BME280;31943;51.410;7.564;2023-04-24T00:06:00;98783.06;;;12.63;56.75
46223;BME280;31943;51.410;7.564;2023-04-24T00:08:26;98777.16;;;12.55;56.80
46223;BME280;31943;51.410;7.564;2023-04-24T00:10:52;98777.44;;;12.41;57.10
46223;BME280;31943;51.410;7.564;2023-04-24T00:13:17;98784.41;;;12.40;57.22
46223;BME280;31943;51.410;7.564;2023-04-24T00:15:43;98784.47;;;12.37;57.20
46223;BME280;31943;51.410;7.564;2023-04-24T00:18:10;98781.09;;;12.32;57.21
46223;BME280;31943;51.410;7.564;2023-04-24T00:20:37;98783.72;;;12.31;56.83
46223;BME280;31943;51.410;7.564;2023-04-24T00:23:03;98788.13;;;12.29;56.95
46223;BME280;31943;51.410;7.564;2023-04-24T00:25:28;98783.06;;;12.21;57.23
46223;BME280;31943;51.410;7.564;2023-04-24T00:27:54;98781.34;;;12.20;56.95
46223;BME280;31943;51.410;7.564;2023-04-24T00:30:20;98779.66;;;12.17;57.31
46223;BME280;31943;51.410;7.564;2023-04-24T00:32:46;98772.75;;;12.13;57.36
46223;BME280;31943;51.410;7.564;2023-04-24T00:35:11;98776.28;;;12.11;57.46
46223;BME280;31943;51.410;7.564;2023-04-24T00:37:39;98780.63;;;12.12;57.59
46223;BME280;31943;51.410;7.564;2023-04-24T00:40:06;98788.50;;;12.12;57.28
46223;BME280;31943;51.410;7.564;2023-04-24T00:42:32;98778.06;;;12.09;57.70
46223;BME280;31943;51.410;7.564;2023-04-24T00:45:00;98776.41;;;12.04;57.28
46223;BME280;31943;51.410;7.564;2023-04-24T00:47:26;98781.59;;;12.07;57.59
46223;BME280;31943;51.410;7.564;2023-04-24T00:49:52;98774.66;;;12.05;57.43
46223;BME280;31943;51.410;7.564;2023-04-24T00:52:18;98780.78;;;12.04;57.42
46223;BME280;31943;51.410;7.564;2023-04-24T00:54:45;98779.06;;;12.03;57.62
46223;BME280;31943;51.410;7.564;2023-04-24T00:57:14;98780.75;;;12.05;57.95
46223;BME280;31943;51.410;7.564;2023-04-24T00:59:40;98779.06;;;12.03;57.63
46223;BME280;31943;51.410;7.564;2023-04-24T01:02:07;98780.75;;;12.05;57.74
46223;BME280;31943;51.410;7.564;2023-04-24T01:04:32;98776.56;;;11.97;57.69
46223;BME280;31943;51.410;7.564;2023-04-24T01:06:58;98774.03;;;11.94;57.62
46223;BME280;31943;51.410;7.564;2023-04-24T01:09:24;98777.34;;;12.02;57.48
46223;BME280;31943;51.410;7.564;2023-04-24T01:11:52;98779.00;;;12.06;57.67
46223;BME280;31943;51.410;7.564;2023-04-24T01:14:18;98774.69;;;12.03;57.23
46223;BME280;31943;51.410;7.564;2023-04-24T01:16:44;98770.34;;;12.02;57.45
46223;BME280;31943;51.410;7.564;2023-04-24T01:19:10;98767.88;;;11.96;57.63
46223;BME280;31943;51.410;7.564;2023-04-24T01:21:37;98767.00;;;11.96;57.86
46223;BME280;31943;51.410;7.564;2023-04-24T01:24:06;98764.28;;;12.00;57.51
46223;BME280;31943;51.410;7.564;2023-04-24T01:26:32;98766.91;;;12.00;57.82
46223;BME280;31943;51.410;7.564;2023-04-24T01:28:58;98773.00;;;11.99;58.16
46223;BME280;31943;51.410;7.564;2023-04-24T01:31:25;98774.63;;;12.06;57.96
46223;BME280;31943;51.410;7.564;2023-04-24T01:33:51;98758.78;;;12.14;57.94
46223;BME280;31943;51.410;7.564;2023-04-24T01:36:18;98761.28;;;12.20;57.84
46223;BME280;31943;51.410;7.564;2023-04-24T01:38:44;98755.13;;;12.23;58.22
46223;BME280;31943;51.410;7.564;2023-04-24T01:41:11;98760.25;;;12.29;58.08
46223;BME280;31943;51.410;7.564;2023-04-24T01:43:38;98761.09;;;12.30;58.06
46223;BME280;31943;51.410;7.564;2023-04-24T01:46:05;98761.06;;;12.31;58.12
46223;BME280;31943;51.410;7.564;2023-04-24T01:48:31;98764.47;;;12.35;57.96
46223;BME280;31943;51.410;7.564;2023-04-24T01:50:57;98764.41;;;12.38;58.22
46223;BME280;31943;51.410;7.564;2023-04-24T01:53:23;98757.38;;;12.41;58.04
46223;BME280;31943;51.410;7.564;2023-04-24T01:55:48;98759.97;;;12.41;58.31
46223;BME280;31943;51.410;7.564;2023-04-24T01:58:16;98764.34;;;12.41;57.90
46223;BME280;31943;51.410;7.564;2023-04-24T02:00:42;98753.97;;;12.36;58.45
46223;BME280;31943;51.410;7.564;2023-04-24T02:03:08;98759.19;;;12.36;58.26
46223;BME280;31943;51.410;7.564;2023-04-24T02:05:33;98751.38;;;12.35;58.50
46223;BME280;31943;51.410;7.564;2023-04-24T02:07:59;98763.72;;;12.30;58.48
46223;BME280;31943;51.410;7.564;2023-04-24T02:10:26;98758.66;;;12.20;58.28
46223;BME280;31943;51.410;7.564;2023-04-24T02:12:52;98762.25;;;12.15;58.41
46223;BME280;31943;51.410;7.564;2023-04-24T02:15:20;98762.53;;;12.01;58.46
46223;BME280;31943;51.410;7.564;2023-04-24T02:17:46;98771.34;;;11.95;58.21
46223;BME280;31943;51.410;7.564;2023-04-24T02:20:12;98770.59;;;11.88;58.36
46223;BME280;31943;51.410;7.564;2023-04-24T02:22:37;98782.81;;;11.88;57.98
46223;BME280;31943;51.410;7.564;2023-04-24T02:25:03;98772.47;;;11.82;58.02
46223;BME280;31943;51.410;7.564;2023-04-24T02:27:29;98783.81;;;11.81;58.02
46223;BME280;31943;51.410;7.564;2023-04-24T02:29:55;98787.38;;;11.75;57.60
46223;BME280;31943;51.410;7.564;2023-04-24T02:32:22;98787.28;;;11.80;57.43
46223;BME280;31943;51.410;7.564;2023-04-24T02:34:48;98790.84;;;11.77;57.01
46223;BME280;31943;51.410;7.564;2023-04-24T02:37:14;98783.91;;;11.75;57.42
46223;BME280;31943;51.410;7.564;2023-04-24T02:39:39;98792.72;;;11.69;57.12
46223;BME280;31943;51.410;7.564;2023-04-24T02:42:05;98797.22;;;11.61;56.98
46223;BME280;31943;51.410;7.564;2023-04-24T02:44:31;98798.94;;;11.62;57.38
46223;BME280;31943;51.410;7.564;2023-04-24T02:46:57;98791.16;;;11.60;56.86
46223;BME280;31943;51.410;7.564;2023-04-24T02:49:24;98790.34;;;11.57;57.36
46223;BME280;31943;51.410;7.564;2023-04-24T02:51:49;98786.84;;;11.56;57.47
46223;BME280;31943;51.410;7.564;2023-04-24T02:54:15;98783.34;;;11.57;57.16
46223;BME280;31943;51.410;7.564;2023-04-24T02:56:41;98786.88;;;11.55;57.04
46223;BME280;31943;51.410;7.564;2023-04-24T02:59:07;98793.00;;;11.52;57.43
46223;BME280;31943;51.410;7.564;2023-04-24T03:01:32;98801.75;;;11.51;57.37
46223;BME280;31943;51.410;7.564;2023-04-24T03:03:58;98813.28;;;11.38;57.44
46223;BME280;31943;51.410;7.564;2023-04-24T03:06:25;98814.22;;;11.34;57.50
46223;BME280;31943;51.410;7.564;2023-04-24T03:08:51;98809.22;;;11.21;57.26
46223;BME280;31943;51.410;7.564;2023-04-24T03:11:16;98811.19;;;11.05;57.93
46223;BME280;31943;51.410;7.564;2023-04-24T03:13:42;98807.78;;;11.00;58.41
46223;BME280;31943;51.410;7.564;2023-04-24T03:16:08;98817.47;;;10.91;58.66
46223;BME280;31943;51.410;7.564;2023-04-24T03:18:34;98818.44;;;10.85;58.54
46223;BME280;31943;51.410;7.564;2023-04-24T03:21:00;98816.75;;;10.79;58.84
46223;BME280;31943;51.410;7.564;2023-04-24T03:23:29;98820.31;;;10.75;58.65
46223;BME280;31943;51.410;7.564;2023-04-24T03:25:55;98823.84;;;10.71;59.11
46223;BME280;31943;51.410;7.564;2023-04-24T03:28:20;98835.19;;;10.67;59.43
46223;BME280;31943;51.410;7.564;2023-04-24T03:30:46;98829.06;;;10.69;59.26
46223;BME280;31943;51.410;7.564;2023-04-24T03:33:12;98835.09;;;10.76;59.07
46223;BME280;31943;51.410;7.564;2023-04-24T03:35:37;98833.38;;;10.74;59.06
46223;BME280;31943;51.410;7.564;2023-04-24T03:38:03;98838.66;;;10.69;59.19
46223;BME280;31943;51.410;7.564;2023-04-24T03:40:31;98831.69;;;10.69;59.61
46223;BME280;31943;51.410;7.564;2023-04-24T03:42:57;98834.28;;;10.69;59.47
46223;BME280;31943;51.410;7.564;2023-04-24T03:45:23;98832.53;;;10.70;59.90
46223;BME280;31943;51.410;7.564;2023-04-24T03:47:49;98831.69;;;10.69;59.71
46223;BME280;31943;51.410;7.564;2023-04-24T03:50:15;98826.38;;;10.76;59.75
46223;BME280;31943;51.410;7.564;2023-04-24T03:52:40;98831.56;;;10.79;59.72
46223;BME280;31943;51.410;7.564;2023-04-24T03:55:07;98831.50;;;10.83;59.59
46223;BME280;31943;51.410;7.564;2023-04-24T03:57:34;98836.78;;;10.79;59.84
46223;BME280;31943;51.410;7.564;2023-04-24T04:00:00;98837.72;;;10.73;59.63
46223;BME280;31943;51.410;7.564;2023-04-24T04:02:26;98835.88;;;10.80;59.90
46223;BME280;31943;51.410;7.564;2023-04-24T04:04:52;98838.47;;;10.81;59.52
46223;BME280;31943;51.410;7.564;2023-04-24T04:07:18;98835.84;;;10.86;59.83
46223;BME280;31943;51.410;7.564;2023-04-24T04:09:44;98839.22;;;10.89;59.48
46223;BME280;31943;51.410;7.564;2023-04-24T04:12:11;98832.31;;;10.88;59.59
46223;BME280;31943;51.410;7.564;2023-04-24T04:14:39;98846.13;;;10.95;59.64
46223;BME280;31943;51.410;7.564;2023-04-24T04:17:05;98847.88;;;10.95;59.81
46223;BME280;31943;51.410;7.564;2023-04-24T04:19:31;98851.31;;;10.97;59.90
46223;BME280;31943;51.410;7.564;2023-04-24T04:21:57;98839.16;;;10.96;59.50
46223;BME280;31943;51.410;7.564;2023-04-24T04:24:22;98838.25;;;10.98;59.62
46223;BME280;31943;51.410;7.564;2023-04-24T04:26:49;98839.13;;;10.99;59.81
46223;BME280;31943;51.410;7.564;2023-04-24T04:29:16;98832.13;;;10.99;59.79
46223;BME280;31943;51.410;7.564;2023-04-24T04:31:44;98828.66;;;10.99;59.46
46223;BME280;31943;51.410;7.564;2023-04-24T04:34:11;98827.94;;;10.91;60.01
46223;BME280;31943;51.410;7.564;2023-04-24T04:36:36;98828.78;;;10.89;59.87
46223;BME280;31943;51.410;7.564;2023-04-24T04:39:03;98833.13;;;10.92;59.91
46223;BME280;31943;51.410;7.564;2023-04-24T04:41:29;98847.84;;;10.98;59.23
46223;BME280;31943;51.410;7.564;2023-04-24T04:43:55;98846.97;;;10.97;59.45
46223;BME280;31943;51.410;7.564;2023-04-24T04:46:21;98848.72;;;10.95;59.39
46223;BME280;31943;51.410;7.564;2023-04-24T04:48:51;98847.94;;;10.90;59.37
46223;BME280;31943;51.410;7.564;2023-04-24T04:51:17;98856.63;;;10.91;59.13
46223;BME280;31943;51.410;7.564;2023-04-24T04:53:43;98858.41;;;10.88;59.11
46223;BME280;31943;51.410;7.564;2023-04-24T04:56:09;98853.19;;;10.88;59.47
46223;BME280;31943;51.410;7.564;2023-04-24T04:58:34;98863.56;;;10.92;59.38
46223;BME280;31943;51.410;7.564;2023-04-24T05:01:00;98854.75;;;11.00;59.36
46223;BME280;31943;51.410;7.564;2023-04-24T05:03:26;98857.38;;;11.00;59.22
46223;BME280;31943;51.410;7.564;2023-04-24T05:05:53;98856.63;;;10.92;59.45
46223;BME280;31943;51.410;7.564;2023-04-24T05:08:18;98856.53;;;10.97;59.35
46223;BME280;31943;51.410;7.564;2023-04-24T05:10:44;98855.72;;;10.93;59.50
46223;BME280;31943;51.410;7.564;2023-04-24T05:13:10;98858.31;;;10.95;59.18
46223;BME280;31943;51.410;7.564;2023-04-24T05:15:35;98859.25;;;10.91;58.82
46223;BME280;31943;51.410;7.564;2023-04-24T05:18:02;98855.00;;;10.82;59.17
46223;BME280;31943;51.410;7.564;2023-04-24T05:20:29;98850.66;;;10.82;59.35
46223;BME280;31943;51.410;7.564;2023-04-24T05:22:57;98851.44;;;10.87;59.02
46223;BME280;31943;51.410;7.564;2023-04-24T05:25:23;98841.88;;;10.88;59.27
46223;BME280;31943;51.410;7.564;2023-04-24T05:27:49;98854.13;;;10.83;59.12
46223;BME280;31943;51.410;7.564;2023-04-24T05:30:15;98841.16;;;10.78;59.27
46223;BME280;31943;51.410;7.564;2023-04-24T05:32:40;98844.56;;;10.82;58.80
46223;BME280;31943;51.410;7.564;2023-04-24T05:35:07;98851.44;;;10.89;58.87
46223;BME280;31943;51.410;7.564;2023-04-24T05:37:32;98859.25;;;10.89;58.78
46223;BME280;31943;51.410;7.564;2023-04-24T05:40:00;98858.41;;;10.88;59.11
46223;BME280;31943;51.410;7.564;2023-04-24T05:42:26;98857.50;;;10.89;58.97
46223;BME280;31943;51.410;7.564;2023-04-24T05:44:53;98862.69;;;10.93;59.19
46223;BME280;31943;51.410;7.564;2023-04-24T05:47:19;98862.72;;;10.89;59.34
46223;BME280;31943;51.410;7.564;2023-04-24T05:49:44;98863.72;;;10.82;59.67
46223;BME280;31943;51.410;7.564;2023-04-24T05:52:10;98868.00;;;10.86;59.56
46223;BME280;31943;51.410;7.564;2023-04-24T05:54:36;98869.59;;;10.95;59.45
46223;BME280;31943;51.410;7.564;2023-04-24T05:57:03;98857.38;;;10.99;59.23
46223;BME280;31943;51.410;7.564;2023-04-24T05:59:29;98870.44;;;10.97;59.31
46223;BME280;31943;51.410;7.564;2023-04-24T06:01:55;98861.72;;;11.00;59.25
46223;BME280;31943;51.410;7.564;2023-04-24T06:04:20;98865.31;;;10.93;59.75
46223;BME280;31943;51.410;7.564;2023-04-24T06:06:46;98871.44;;;10.88;60.28
46223;BME280;31943;51.410;7.564;2023-04-24T06:09:12;98860.94;;;10.92;59.88
46223;BME280;31943;51.410;7.564;2023-04-24T06:11:38;98862.88;;;10.79;59.91
46223;BME280;31943;51.410;7.564;2023-04-24T06:14:06;98868.13;;;10.76;60.29
46223;BME280;31943;51.410;7.564;2023-04-24T06:16:32;98868.19;;;10.73;60.21
46223;BME280;31943;51.410;7.564;2023-04-24T06:18:57;98861.31;;;10.65;60.32
46223;BME280;31943;51.410;7.564;2023-04-24T06:21:23;98865.75;;;10.59;60.67
46223;BME280;31943;51.410;7.564;2023-04-24T06:23:51;98866.63;;;10.58;60.88
46223;BME280;31943;51.410;7.564;2023-04-24T06:26:17;98869.97;;;10.66;60.30
46223;BME280;31943;51.410;7.564;2023-04-24T06:28:43;98874.25;;;10.72;60.26
46223;BME280;31943;51.410;7.564;2023-04-24T06:31:10;98882.09;;;10.70;60.26
46223;BME280;31943;51.410;7.564;2023-04-24T06:33:35;98884.66;;;10.76;60.42
46223;BME280;31943;51.410;7.564;2023-04-24T06:36:01;98888.13;;;10.78;60.40
46223;BME280;31943;51.410;7.564;2023-04-24T06:38:28;98881.97;;;10.81;60.64
46223;BME280;31943;51.410;7.564;2023-04-24T06:40:54;98889.78;;;10.84;60.65
46223;BME280;31943;51.410;7.564;2023-04-24T06:43:20;98882.91;;;10.75;60.46
46223;BME280;31943;51.410;7.564;2023-04-24T06:45:46;98882.16;;;10.67;60.58
46223;BME280;31943;51.410;7.564;2023-04-24T06:48:13;98882.09;;;10.72;60.91
46223;BME280;31943;51.410;7.564;2023-04-24T06:50:39;98882.81;;;10.84;60.82
46223;BME280;31943;51.410;7.564;2023-04-24T06:53:04;98879.31;;;10.85;61.20
46223;BME280;31943;51.410;7.564;2023-04-24T06:55:30;98887.13;;;10.87;60.65
46223;BME280;31943;51.410;7.564;2023-04-24T06:57:56;98894.00;;;10.94;60.46
46223;BME280;31943;51.410;7.564;2023-04-24T07:00:21;98880.97;;;10.93;60.62
46223;BME280;31943;51.410;7.564;2023-04-24T07:02:47;98891.41;;;10.93;61.02
46223;BME280;31943;51.410;7.564;2023-04-24T07:05:15;98888.88;;;10.88;61.18
46223;BME280;31943;51.410;7.564;2023-04-24T07:07:41;98884.53;;;10.85;61.55
46223;BME280;31943;51.410;7.564;2023-04-24T07:10:07;98889.72;;;10.88;61.57
46223;BME280;31943;51.410;7.564;2023-04-24T07:12:33;98891.41;;;10.91;62.08
46223;BME280;31943;51.410;7.564;2023-04-24T07:15:00;98894.88;;;10.92;62.08
46223;BME280;31943;51.410;7.564;2023-04-24T07:17:26;98899.31;;;10.86;62.42
46223;BME280;31943;51.410;7.564;2023-04-24T07:19:51;98888.13;;;10.78;62.33
46223;BME280;31943;51.410;7.564;2023-04-24T07:22:19;98895.03;;;10.81;63.03
46223;BME280;31943;51.410;7.564;2023-04-24T07:24:45;98895.03;;;10.79;62.91
46223;BME280;31943;51.410;7.564;2023-04-24T07:27:10;98891.50;;;10.86;63.25
46223;BME280;31943;51.410;7.564;2023-04-24T07:29:38;98893.84;;;11.05;63.01
46223;BME280;31943;51.410;7.564;2023-04-24T07:32:04;98894.59;;;11.13;62.95
46223;BME280;31943;51.410;7.564;2023-04-24T07:34:31;98893.44;;;11.33;62.51
46223;BME280;31943;51.410;7.564;2023-04-24T07:36:58;98896.81;;;11.41;62.56
46223;BME280;31943;51.410;7.564;2023-04-24T07:39:26;98892.50;;;11.38;62.65
46223;BME280;31943;51.410;7.564;2023-04-24T07:41:52;98884.75;;;11.32;62.35
46223;BME280;31943;51.410;7.564;2023-04-24T07:44:18;98888.53;;;11.11;62.12
46223;BME280;31943;51.410;7.564;2023-04-24T07:46:44;98892.91;;;11.09;62.31
46223;BME280;31943;51.410;7.564;2023-04-24T07:49:10;98889.34;;;11.16;62.21
46223;BME280;31943;51.410;7.564;2023-04-24T07:51:36;98898.84;;;11.20;61.90
46223;BME280;31943;51.410;7.564;2023-04-24T07:54:02;98900.53;;;11.23;62.13
46223;BME280;31943;51.410;7.564;2023-04-24T07:56:29;98903.25;;;11.15;62.04
46223;BME280;31943;51.410;7.564;2023-04-24T07:58:54;98907.59;;;11.18;62.43
46223;BME280;31943;51.410;7.564;2023-04-24T08:01:20;98903.19;;;11.21;62.39
46223;BME280;31943;51.410;7.564;2023-04-24T08:03:46;98904.16;;;11.16;62.17
46223;BME280;31943;51.410;7.564;2023-04-24T08:06:11;98909.56;;;11.00;61.94
46223;BME280;31943;51.410;7.564;2023-04-24T08:08:37;98921.03;;;10.90;62.67
46223;BME280;31943;51.410;7.564;2023-04-24T08:11:03;98915.00;;;10.83;62.38
46223;BME280;31943;51.410;7.564;2023-04-24T08:13:30;98919.28;;;10.91;61.74
46223;BME280;31943;51.410;7.564;2023-04-24T08:15:56;98912.13;;;11.03;61.65
46223;BME280;31943;51.410;7.564;2023-04-24T08:18:22;98913.94;;;11.00;61.46
46223;BME280;31943;51.410;7.564;2023-04-24T08:20:48;98916.69;;;10.87;61.54
46223;BME280;31943;51.410;7.564;2023-04-24T08:23:13;98923.72;;;10.84;61.14
46223;BME280;31943;51.410;7.564;2023-04-24T08:25:39;98930.66;;;10.82;61.29
46223;BME280;31943;51.410;7.564;2023-04-24T08:28:06;98922.03;;;10.78;61.66
46223;BME280;31943;51.410;7.564;2023-04-24T08:30:38;98921.88;;;10.89;61.61
46223;BME280;31943;51.410;7.564;2023-04-24T08:33:04;98936.53;;;11.01;61.58
46223;BME280;31943;51.410;7.564;2023-04-24T08:35:29;98941.06;;;10.86;61.91
46223;BME280;31943;51.410;7.564;2023-04-24T08:37:56;98957.69;;;10.78;61.84
46223;BME280;31943;51.410;7.564;2023-04-24T08:40:27;98959.66;;;10.57;61.55
46223;BME280;31943;51.410;7.564;2023-04-24T08:42:53;98968.59;;;10.27;61.97
46223;BME280;31943;51.410;7.564;2023-04-24T08:45:19;98964.41;;;10.14;62.29
46223;BME280;31943;51.410;7.564;2023-04-24T08:47:47;98960.97;;;10.08;62.47
46223;BME280;31943;51.410;7.564;2023-04-24T08:50:13;98966.22;;;10.04;62.48
46223;BME280;31943;51.410;7.564;2023-04-24T08:52:39;98970.53;;;10.05;62.34
46223;BME280;31943;51.410;7.564;2023-04-24T08:55:07;98965.38;;;10.00;61.73
46223;BME280;31943;51.410;7.564;2023-04-24T08:57:33;98964.47;;;10.06;61.98
46223;BME280;31943;51.410;7.564;2023-04-24T08:59:59;98956.59;;;10.12;61.84
46223;BME280;31943;51.410;7.564;2023-04-24T09:02:26;98961.78;;;10.14;62.02
46223;BME280;31943;51.410;7.564;2023-04-24T09:04:56;98983.63;;;9.99;61.78
46223;BME280;31943;51.410;7.564;2023-04-24T09:07:22;98979.31;;;9.96;62.10
46223;BME280;31943;51.410;7.564;2023-04-24T09:12:14;98974.06;;;10.01;62.56
46223;BME280;31943;51.410;7.564;2023-04-24T09:14:39;98975.75;;;10.05;62.88
46223;BME280;31943;51.410;7.564;2023-04-24T09:17:06;98971.38;;;10.10;63.08
46223;BME280;31943;51.410;7.564;2023-04-24T09:19:31;98988.00;;;9.97;63.17
46223;BME280;31943;51.410;7.564;2023-04-24T09:21:59;98985.44;;;9.92;63.43
46223;BME280;31943;51.410;7.564;2023-04-24T09:24:25;98982.78;;;9.98;63.73
46223;BME280;31943;51.410;7.564;2023-04-24T09:26:56;98987.09;;;9.99;63.89
46223;BME280;31943;51.410;7.564;2023-04-24T09:29:22;99000.13;;;9.99;64.04
46223;BME280;31943;51.410;7.564;2023-04-24T09:31:48;98996.66;;;9.96;64.16
46223;BME280;31943;51.410;7.564;2023-04-24T09:34:18;99000.19;;;9.93;64.45
46223;BME280;31943;51.410;7.564;2023-04-24T09:36:47;99008.94;;;9.86;64.41
46223;BME280;31943;51.410;7.564;2023-04-24T09:39:16;99015.88;;;9.84;64.73
46223;BME280;31943;51.410;7.564;2023-04-24T09:41:47;99022.94;;;9.63;65.74
46223;BME280;31943;51.410;7.564;2023-04-24T09:44:14;99023.81;;;9.64;65.94
46223;BME280;31943;51.410;7.564;2023-04-24T09:46:42;99029.88;;;9.69;66.10
46223;BME280;31943;51.410;7.564;2023-04-24T09:49:11;99039.47;;;9.59;66.71
46223;BME280;31943;51.410;7.564;2023-04-24T09:51:38;99036.88;;;9.59;66.71
46223;BME280;31943;51.410;7.564;2023-04-24T09:54:05;99051.63;;;9.56;66.63
46223;BME280;31943;51.410;7.564;2023-04-24T09:56:42;99061.19;;;9.57;67.29
46223;BME280;31943;51.410;7.564;2023-04-24T09:59:08;99070.75;;;9.53;67.61
46223;BME280;31943;51.410;7.564;2023-04-24T10:01:34;99059.41;;;9.60;67.95
46223;BME280;31943;51.410;7.564;2023-04-24T10:04:00;99073.28;;;9.67;68.33
46223;BME280;31943;51.410;7.564;2023-04-24T10:06:34;99076.75;;;9.66;67.96
46223;BME280;31943;51.410;7.564;2023-04-24T10:09:00;99087.13;;;9.77;68.56
46223;BME280;31943;51.410;7.564;2023-04-24T10:11:26;99088.84;;;9.81;68.08
46223;BME280;31943;51.410;7.564;2023-04-24T10:13:54;99084.56;;;9.67;68.56
46223;BME280;31943;51.410;7.564;2023-04-24T10:16:21;99100.19;;;9.66;69.06
46223;BME280;31943;51.410;7.564;2023-04-24T10:18:48;99123.72;;;9.49;69.25
46223;BME280;31943;51.410;7.564;2023-04-24T10:21:14;99131.53;;;9.47;69.30
46223;BME280;31943;51.410;7.564;2023-04-24T10:23:41;99146.31;;;9.36;69.42
46223;BME280;31943;51.410;7.564;2023-04-24T10:26:08;99157.63;;;9.32;69.32
46223;BME280;31943;51.410;7.564;2023-04-24T10:28:36;99149.84;;;9.20;69.35
46223;BME280;31943;51.410;7.564;2023-04-24T10:31:04;99162.88;;;9.10;69.15
46223;BME280;31943;51.410;7.564;2023-04-24T10:33:30;99176.75;;;9.16;68.27
46223;BME280;31943;51.410;7.564;2023-04-24T10:35:57;99192.38;;;9.05;68.97
46223;BME280;31943;51.410;7.564;2023-04-24T10:38:25;99201.06;;;9.02;68.82
46223;BME280;31943;51.410;7.564;2023-04-24T10:40:51;99201.94;;;8.92;69.30
46223;BME280;31943;51.410;7.564;2023-04-24T10:43:17;99214.06;;;8.88;68.29
46223;BME280;31943;51.410;7.564;2023-04-24T10:46:00;99220.13;;;8.81;68.94
46223;BME280;31943;51.410;7.564;2023-04-24T10:48:28;99222.75;;;8.78;69.20
46223;BME280;31943;51.410;7.564;2023-04-24T10:50:53;99231.38;;;8.82;69.39
46223;BME280;31943;51.410;7.564;2023-04-24T10:53:22;99224.47;;;8.85;69.34
46223;BME280;31943;51.410;7.564;2023-04-24T10:55:50;99234.00;;;8.89;69.90
46223;BME280;31943;51.410;7.564;2023-04-24T10:58:16;99236.63;;;8.93;69.67
46223;BME280;31943;51.410;7.564;2023-04-24T11:00:43;99239.22;;;8.93;69.67
46223;BME280;31943;51.410;7.564;2023-04-24T11:03:24;99243.56;;;8.90;70.00
46223;BME280;31943;51.410;7.564;2023-04-24T11:05:55;99247.00;;;8.91;70.26
46223;BME280;31943;51.410;7.564;2023-04-24T11:08:24;99254.81;;;8.96;70.47
46223;BME280;31943;51.410;7.564;2023-04-24T11:10:56;99260.03;;;9.03;70.71
46223;BME280;31943;51.410;7.564;2023-04-24T11:13:23;99266.09;;;9.01;70.23
46223;BME280;31943;51.410;7.564;2023-04-24T11:16:12;99270.47;;;9.09;70.38
46223;BME280;31943;51.410;7.564;2023-04-24T11:18:38;99275.66;;;9.08;70.16
46223;BME280;31943;51.410;7.564;2023-04-24T11:21:11;99275.66;;;9.23;69.96
46223;BME280;31943;51.410;7.564;2023-04-24T11:23:37;99273.03;;;9.26;69.77
46223;BME280;31943;51.410;7.564;2023-04-24T11:26:14;99282.59;;;9.27;70.06
46223;BME280;31943;51.410;7.564;2023-04-24T11:28:49;99273.91;;;9.33;70.45
46223;BME280;31943;51.410;7.564;2023-04-24T11:31:35;99282.59;;;9.43;70.35
46223;BME280;31943;51.410;7.564;2023-04-24T11:34:09;99280.84;;;9.37;70.72
46223;BME280;31943;51.410;7.564;2023-04-24T11:36:37;99286.91;;;9.41;70.65
46223;BME280;31943;51.410;7.564;2023-04-24T11:39:04;99295.59;;;9.41;70.40
46223;BME280;31943;51.410;7.564;2023-04-24T11:41:30;99306.03;;;9.34;70.65
46223;BME280;31943;51.410;7.564;2023-04-24T11:43:56;99303.44;;;9.35;70.65
46223;BME280;31943;51.410;7.564;2023-04-24T11:46:22;99310.34;;;9.41;70.19
46223;BME280;31943;51.410;7.564;2023-04-24T11:48:48;99310.34;;;9.45;69.62
46223;BME280;31943;51.410;7.564;2023-04-24T11:51:14;99316.41;;;9.50;69.33
46223;BME280;31943;51.410;7.564;2023-04-24T11:53:42;99317.28;;;9.48;69.91
46223;BME280;31943;51.410;7.564;2023-04-24T11:56:08;99314.72;;;9.45;69.69
46223;BME280;31943;51.410;7.564;2023-04-24T11:58:37;99325.09;;;9.48;69.95
46223;BME280;31943;51.410;7.564;2023-04-24T12:01:04;99322.50;;;9.40;69.81
46223;BME280;31943;51.410;7.564;2023-04-24T12:03:30;99321.63;;;9.40;70.22
46223;BME280;31943;51.410;7.564;2023-04-24T12:06:04;99327.72;;;9.42;70.37
46223;BME280;31943;51.410;7.564;2023-04-24T12:08:30;99325.09;;;9.54;70.69
46223;BME280;31943;51.410;7.564;2023-04-24T12:10:58;99325.94;;;9.70;70.37
46223;BME280;31943;51.410;7.564;2023-04-24T12:13:25;99327.66;;;9.82;69.95
46223;BME280;31943;51.410;7.564;2023-04-24T12:15:51;99328.56;;;9.81;69.99
46223;BME280;31943;51.410;7.564;2023-04-24T12:18:17;99330.31;;;9.66;70.22
46223;BME280;31943;51.410;7.564;2023-04-24T12:20:42;99333.78;;;9.65;69.97
46223;BME280;31943;51.410;7.564;2023-04-24T12:23:08;99349.41;;;9.67;70.29
46223;BME280;31943;51.410;7.564;2023-04-24T12:25:34;99345.94;;;9.65;70.01
46223;BME280;31943;51.410;7.564;2023-04-24T12:28:10;99351.13;;;9.60;69.23
46223;BME280;31943;51.410;7.564;2023-04-24T12:30:40;99357.25;;;9.61;68.95
46223;BME280;31943;51.410;7.564;2023-04-24T12:33:06;99360.72;;;9.57;68.58
46223;BME280;31943;51.410;7.564;2023-04-24T12:35:32;99365.03;;;9.50;67.96
46223;BME280;31943;51.410;7.564;2023-04-24T12:38:05;99365.91;;;9.55;66.93
46223;BME280;31943;51.410;7.564;2023-04-24T12:40:31;99368.50;;;9.58;66.66
46223;BME280;31943;51.410;7.564;2023-04-24T12:42:56;99373.72;;;9.66;67.08
46223;BME280;31943;51.410;7.564;2023-04-24T12:45:24;99381.50;;;9.87;67.77
46223;BME280;31943;51.410;7.564;2023-04-24T12:47:50;99372.78;;;10.07;66.85
46223;BME280;31943;51.410;7.564;2023-04-24T12:50:16;99371.03;;;10.24;66.72
46223;BME280;31943;51.410;7.564;2023-04-24T12:52:42;99373.63;;;10.37;66.44
46223;BME280;31943;51.410;7.564;2023-04-24T12:55:09;99362.28;;;10.48;66.75
46223;BME280;31943;51.410;7.564;2023-04-24T12:57:35;99373.56;;;10.54;66.46
46223;BME280;31943;51.410;7.564;2023-04-24T13:00:03;99378.81;;;10.49;65.78
46223;BME280;31943;51.410;7.564;2023-04-24T13:02:32;99385.81;;;10.39;65.68